Terminal Aerodrome Forecast
Issued by NWS

Home | Current Version | Previous Version | Text Only | Print | Product List | Glossary Off
Versions: 1 2 3 4 5 6 7 8 9 10 11 12 13 14

000
FTUS43 KUNR 041120
TAFGCC
TAF
KGCC 041120Z 0412/0512 14010KT P6SM SCT080 BKN150
     FM041700 17010KT P6SM VCTS BKN050CB
      TEMPO 0418/0422 2SM TSRA BKN020CB
     FM050200 35010KT P6SM BKN100=

USA.gov is the U.S. government's official web portal to all federal, state and local government web resources and services.